createdAt,value
2023-01-30T00:00:58.433Z,-1.76
2023-01-30T00:03:25.767Z,-1.78
2023-01-30T00:05:52.627Z,-1.53
2023-01-30T00:08:19.890Z,-1.55
2023-01-30T00:10:47.475Z,-1.47
2023-01-30T00:13:15.307Z,-1.37
2023-01-30T00:15:42.570Z,-1.31
2023-01-30T00:18:09.769Z,-1.35
2023-01-30T00:20:37.279Z,-1.38
2023-01-30T00:23:04.484Z,-1.47
2023-01-30T00:25:31.912Z,-1.25
2023-01-30T00:28:02.309Z,-0.93
2023-01-30T00:30:30.171Z,-0.78
2023-01-30T00:32:58.033Z,-0.88
2023-01-30T00:35:28.864Z,-1.06
2023-01-30T00:37:57.893Z,-1.07
2023-01-30T00:40:26.161Z,-1.08
2023-01-30T00:46:03.328Z,-1.21
2023-01-30T00:48:30.676Z,-1.29
2023-01-30T00:50:59.557Z,-0.97
2023-01-30T00:53:26.544Z,-1.02
2023-01-30T00:55:54.213Z,-1.04
2023-01-30T00:58:22.534Z,-0.93
2023-01-30T01:00:50.208Z,-0.96
2023-01-30T01:03:17.217Z,-0.97
2023-01-30T01:05:44.656Z,-0.99
2023-01-30T01:08:12.123Z,-1.14
2023-01-30T01:10:39.019Z,-1.07
2023-01-30T01:13:07.126Z,-1.36
2023-01-30T01:15:34.146Z,-1.15
2023-01-30T01:18:01.056Z,-1.36
2023-01-30T01:20:27.948Z,-1.27
2023-01-30T01:22:56.331Z,-1.30
2023-01-30T01:25:24.319Z,-1.35
2023-01-30T01:27:51.200Z,-1.36
2023-01-30T01:30:18.795Z,-1.32
2023-01-30T01:32:45.731Z,-1.43
2023-01-30T01:35:12.773Z,-1.52
2023-01-30T01:37:39.662Z,-1.17
2023-01-30T01:40:26.041Z,-1.40
2023-01-30T01:42:52.986Z,-1.61
2023-01-30T01:45:24.764Z,-1.59
2023-01-30T01:48:00.832Z,-1.46
2023-01-30T01:50:40.930Z,-1.50
2023-01-30T01:53:08.927Z,-1.56
2023-01-30T01:55:36.078Z,-1.48
2023-01-30T01:58:25.520Z,-1.72
2023-01-30T02:00:52.960Z,-1.62
2023-01-30T02:03:23.595Z,-1.49
2023-01-30T02:05:52.830Z,-1.48
2023-01-30T02:08:37.875Z,-1.76
2023-01-30T02:11:23.374Z,-1.49
2023-01-30T02:13:51.093Z,-1.82
2023-01-30T02:16:18.330Z,-1.87
2023-01-30T02:18:46.045Z,-1.83
2023-01-30T02:21:45.519Z,-1.97
2023-01-30T02:24:43.525Z,-1.88
2023-01-30T02:27:10.288Z,-2.18
2023-01-30T02:29:49.048Z,-2.47
2023-01-30T02:32:54.497Z,-2.25
2023-01-30T02:35:43.507Z,-1.97
2023-01-30T02:38:10.330Z,-1.92
2023-01-30T02:40:53.650Z,-2.00
2023-01-30T02:43:29.065Z,-2.14
2023-01-30T02:46:21.551Z,-1.87
2023-01-30T02:49:00.141Z,-1.82
2023-01-30T02:51:30.457Z,-1.92
2023-01-30T02:53:58.084Z,-2.28
2023-01-30T02:56:25.022Z,-1.99
2023-01-30T02:59:06.347Z,-2.15
2023-01-30T03:01:51.904Z,-2.22
2023-01-30T03:04:43.419Z,-2.15
2023-01-30T03:07:19.303Z,-2.31
2023-01-30T03:10:11.024Z,-2.42
2023-01-30T03:12:52.873Z,-2.47
2023-01-30T03:15:28.889Z,-2.95
2023-01-30T03:17:56.226Z,-2.63
2023-01-30T03:20:23.552Z,-2.71
2023-01-30T03:22:50.406Z,-2.95
2023-01-30T03:25:22.143Z,-2.40
2023-01-30T03:27:51.222Z,-2.63
2023-01-30T03:30:18.561Z,-2.64
2023-01-30T03:32:45.436Z,-2.51
2023-01-30T03:35:12.920Z,-2.75
2023-01-30T03:37:39.803Z,-2.48
2023-01-30T03:40:07.428Z,-2.40
2023-01-30T03:42:34.283Z,-2.65
2023-01-30T03:45:01.153Z,-2.38
2023-01-30T03:47:28.002Z,-2.60
2023-01-30T03:49:54.870Z,-2.62
2023-01-30T03:52:22.032Z,-2.61
2023-01-30T03:54:48.907Z,-2.44
2023-01-30T03:57:15.752Z,-2.58
2023-01-30T03:59:42.573Z,-2.46
2023-01-30T04:02:09.677Z,-2.35
2023-01-30T04:04:36.574Z,-2.40
2023-01-30T04:07:03.624Z,-2.67
2023-01-30T04:09:30.465Z,-2.65
2023-01-30T04:11:58.371Z,-2.69
2023-01-30T04:14:25.225Z,-2.63
2023-01-30T04:16:52.093Z,-2.41
2023-01-30T04:19:18.959Z,-2.44
2023-01-30T04:21:45.894Z,-2.40
2023-01-30T04:24:12.815Z,-2.30
2023-01-30T04:26:39.694Z,-2.67
2023-01-30T04:29:06.630Z,-2.86
2023-01-30T04:31:33.689Z,-2.55
2023-01-30T04:34:00.708Z,-2.68
2023-01-30T04:36:29.425Z,-2.36
2023-01-30T04:38:59.139Z,-1.98
2023-01-30T04:41:26.068Z,-2.19
2023-01-30T04:43:52.918Z,-2.30
2023-01-30T04:46:19.817Z,-2.04
2023-01-30T04:48:46.687Z,-2.06
2023-01-30T04:51:14.803Z,-2.28
2023-01-30T04:53:41.620Z,-2.21
2023-01-30T04:56:08.916Z,-2.37
2023-01-30T04:58:35.778Z,-2.32
2023-01-30T05:01:21.334Z,-2.42
2023-01-30T05:03:54.992Z,-2.44
2023-01-30T05:06:22.611Z,-2.23
2023-01-30T05:08:50.501Z,-2.28
2023-01-30T05:11:18.980Z,-2.18
2023-01-30T05:13:45.915Z,-2.15
2023-01-30T05:16:13.281Z,-2.04
2023-01-30T05:18:40.168Z,-2.19
2023-01-30T05:21:09.087Z,-2.41
2023-01-30T05:23:36.355Z,-2.41
2023-01-30T05:26:03.786Z,-2.33
2023-01-30T05:28:31.027Z,-2.36
2023-01-30T05:31:05.985Z,-2.51
2023-01-30T05:33:33.110Z,-2.46
2023-01-30T05:36:00.360Z,-2.63
2023-01-30T05:38:27.569Z,-2.62
2023-01-30T05:41:04.301Z,-2.83
2023-01-30T05:43:31.842Z,-2.87
2023-01-30T05:46:00.071Z,-3.05
2023-01-30T05:48:28.725Z,-2.45
2023-01-30T05:50:57.891Z,-2.49
2023-01-30T05:53:28.051Z,-2.61
2023-01-30T05:55:58.865Z,-2.91
2023-01-30T05:58:26.037Z,-2.83
2023-01-30T06:00:54.026Z,-2.71
2023-01-30T06:03:21.214Z,-2.46
2023-01-30T06:05:48.090Z,-2.67
2023-01-30T06:08:14.992Z,-2.41
2023-01-30T06:10:41.860Z,-2.42
2023-01-30T06:13:11.192Z,-2.34
2023-01-30T06:15:38.394Z,-2.22
2023-01-30T06:18:05.464Z,-2.32
2023-01-30T06:20:32.392Z,-2.55
2023-01-30T06:22:59.229Z,-2.27
2023-01-30T06:25:26.217Z,-2.25
2023-01-30T06:27:53.169Z,-2.64
2023-01-30T06:30:20.280Z,-2.48
2023-01-30T06:32:50.987Z,-2.48
2023-01-30T06:35:18.068Z,-2.36
2023-01-30T06:37:45.574Z,-2.28
2023-01-30T06:40:13.470Z,-2.14
2023-01-30T06:42:45.324Z,-2.06
2023-01-30T06:45:13.507Z,-2.07
2023-01-30T06:47:51.454Z,-1.97
2023-01-30T06:50:19.928Z,-2.14
2023-01-30T06:52:48.734Z,-2.08
2023-01-30T06:55:17.867Z,-1.83
2023-01-30T06:57:45.891Z,-1.91
2023-01-30T07:00:18.337Z,-1.65
2023-01-30T07:02:46.067Z,-2.04
2023-01-30T07:05:13.291Z,-1.92
2023-01-30T07:07:40.128Z,-1.27
2023-01-30T07:10:09.210Z,-0.66
2023-01-30T07:12:37.041Z,-0.16
2023-01-30T07:15:05.399Z,-0.15
2023-01-30T07:17:32.754Z,0.10
2023-01-30T07:20:00.016Z,-0.04
2023-01-30T07:22:26.959Z,0.25
2023-01-30T07:24:53.851Z,0.36
2023-01-30T07:27:20.844Z,0.04
2023-01-30T07:29:47.723Z,-0.23
2023-01-30T07:32:18.580Z,0.12
2023-01-30T07:34:45.897Z,1.02
2023-01-30T07:37:13.162Z,1.32
2023-01-30T07:39:40.040Z,1.77
2023-01-30T07:42:07.070Z,1.42
2023-01-30T07:44:34.399Z,1.76
2023-01-30T07:47:01.761Z,1.57
2023-01-30T07:49:28.730Z,1.36
2023-01-30T07:51:55.677Z,1.15
2023-01-30T07:54:22.542Z,0.99
2023-01-30T07:56:49.318Z,0.91
2023-01-30T07:59:16.196Z,0.80
2023-01-30T08:01:43.059Z,0.58
2023-01-30T08:04:09.730Z,0.67
2023-01-30T08:06:39.401Z,0.91
2023-01-30T08:09:07.130Z,1.18
2023-01-30T08:11:34.467Z,1.20
2023-01-30T08:14:01.582Z,1.12
2023-01-30T08:16:28.658Z,0.55
2023-01-30T08:18:55.594Z,0.22
2023-01-30T08:21:22.484Z,0.17
2023-01-30T08:23:49.455Z,0.47
2023-01-30T08:26:16.553Z,0.38
2023-01-30T08:28:43.464Z,0.15
2023-01-30T08:31:11.132Z,0.06
2023-01-30T08:33:38.176Z,0.02
2023-01-30T08:36:05.680Z,-0.15
2023-01-30T08:38:32.558Z,-0.01
2023-01-30T08:41:01.196Z,0.24
2023-01-30T08:43:28.137Z,0.25
2023-01-30T08:45:55.683Z,0.28
2023-01-30T08:48:23.124Z,0.58
2023-01-30T08:50:54.327Z,0.99
2023-01-30T08:53:21.556Z,1.37
2023-01-30T08:55:52.929Z,1.40
2023-01-30T08:58:22.944Z,1.02
2023-01-30T09:00:50.644Z,1.11
2023-01-30T09:03:18.707Z,1.02
2023-01-30T09:05:46.119Z,0.80
2023-01-30T09:08:13.359Z,0.77
2023-01-30T09:10:40.280Z,0.85
2023-01-30T09:13:09.758Z,0.78
2023-01-30T09:15:36.982Z,0.88
2023-01-30T09:18:05.160Z,0.74
2023-01-30T09:20:32.168Z,0.90
2023-01-30T09:22:59.340Z,0.90
2023-01-30T09:25:26.367Z,0.58
2023-01-30T09:27:53.774Z,0.96
2023-01-30T09:30:21.195Z,1.04
2023-01-30T09:32:48.504Z,0.93
2023-01-30T09:35:15.509Z,0.91
2023-01-30T09:37:52.354Z,0.81
2023-01-30T09:40:25.446Z,1.21
2023-01-30T09:43:11.251Z,1.21
2023-01-30T09:45:47.745Z,1.19
2023-01-30T09:48:20.620Z,1.11
2023-01-30T09:50:58.159Z,0.85
2023-01-30T09:53:37.194Z,0.76
2023-01-30T09:56:04.298Z,0.96
2023-01-30T09:58:55.043Z,1.10
2023-01-30T10:02:00.732Z,1.10
2023-01-30T10:04:51.722Z,1.35
2023-01-30T10:07:35.195Z,1.32
2023-01-30T10:10:23.610Z,1.72
2023-01-30T10:12:54.688Z,2.08
2023-01-30T10:15:43.543Z,2.23
2023-01-30T10:18:13.546Z,2.36
2023-01-30T10:20:52.947Z,2.44
2023-01-30T10:23:25.894Z,2.25
2023-01-30T10:26:05.659Z,2.40
2023-01-30T10:28:36.259Z,2.43
2023-01-30T10:31:09.124Z,2.41
2023-01-30T10:33:45.136Z,2.34
2023-01-30T10:36:16.211Z,1.98
2023-01-30T10:38:52.197Z,1.99
2023-01-30T10:41:42.738Z,2.29
2023-01-30T10:44:12.766Z,2.69
2023-01-30T10:47:01.356Z,2.57
2023-01-30T10:49:42.938Z,2.79
2023-01-30T10:52:36.550Z,3.23
2023-01-30T10:55:38.240Z,4.00
2023-01-30T10:58:43.047Z,4.36
2023-01-30T11:01:17.873Z,4.23
2023-01-30T11:03:48.819Z,4.22
2023-01-30T11:06:18.929Z,4.19
2023-01-30T11:08:46.281Z,4.16
2023-01-30T11:11:43.328Z,3.98
2023-01-30T11:14:11.964Z,4.01
2023-01-30T11:16:55.589Z,3.68
2023-01-30T11:19:31.968Z,3.36
2023-01-30T11:22:04.209Z,3.63
2023-01-30T11:24:32.665Z,3.36
2023-01-30T11:27:24.969Z,3.69
2023-01-30T11:30:03.818Z,3.83
2023-01-30T11:32:30.803Z,4.11
2023-01-30T11:35:06.665Z,4.06
2023-01-30T11:37:36.171Z,3.80
2023-01-30T11:40:18.774Z,4.15
2023-01-30T11:42:50.847Z,3.53
2023-01-30T11:45:21.458Z,3.53
2023-01-30T11:48:04.712Z,3.56
2023-01-30T11:50:41.974Z,3.46
2023-01-30T11:53:22.619Z,3.15
2023-01-30T11:56:02.200Z,3.00
2023-01-30T11:58:33.469Z,3.02
2023-01-30T12:01:00.704Z,2.84
2023-01-30T12:03:29.592Z,2.62
2023-01-30T12:05:58.386Z,2.82
2023-01-30T12:08:41.176Z,2.94
2023-01-30T12:11:26.102Z,2.81
2023-01-30T12:14:14.869Z,3.13
2023-01-30T12:17:16.565Z,3.28
2023-01-30T12:19:54.551Z,3.17
2023-01-30T12:22:53.669Z,2.86
2023-01-30T12:25:30.073Z,2.95
2023-01-30T12:28:02.328Z,2.99
2023-01-30T12:31:07.829Z,3.18
2023-01-30T12:33:35.741Z,3.35
2023-01-30T12:36:14.823Z,3.07
2023-01-30T12:39:12.219Z,3.23
2023-01-30T12:45:15.350Z,2.92
2023-01-30T12:47:48.874Z,2.98
2023-01-30T12:50:36.789Z,2.73
2023-01-30T12:53:06.648Z,2.68
2023-01-30T12:55:58.251Z,2.69
2023-01-30T12:58:37.342Z,2.67
2023-01-30T13:01:22.498Z,2.38
2023-01-30T13:04:02.211Z,2.55
2023-01-30T13:07:08.175Z,2.64
2023-01-30T13:09:57.850Z,2.85
2023-01-30T13:12:27.787Z,2.64
2023-01-30T13:15:11.300Z,2.59
2023-01-30T13:17:56.501Z,2.67
2023-01-30T13:20:41.699Z,2.86
2023-01-30T13:23:19.719Z,3.04
2023-01-30T13:26:21.070Z,2.92
2023-01-30T13:28:50.659Z,3.05
2023-01-30T13:31:21.915Z,2.75
2023-01-30T13:33:51.274Z,2.75
2023-01-30T13:36:25.265Z,2.73
2023-01-30T13:39:15.043Z,2.84
2023-01-30T13:41:46.039Z,2.45
2023-01-30T13:44:21.127Z,2.48
2023-01-30T13:46:48.893Z,2.27
2023-01-30T13:49:27.819Z,2.42
2023-01-30T13:52:03.301Z,2.22
2023-01-30T13:54:30.062Z,2.30
2023-01-30T13:56:58.292Z,2.20
2023-01-30T13:59:47.213Z,2.22
2023-01-30T14:02:19.452Z,2.37
2023-01-30T14:04:59.489Z,2.04
2023-01-30T14:07:55.790Z,2.22
2023-01-30T14:10:23.851Z,2.05
2023-01-30T14:12:53.108Z,2.37
2023-01-30T14:15:26.204Z,2.47
2023-01-30T14:18:07.473Z,2.64
2023-01-30T14:20:38.016Z,2.49
2023-01-30T14:23:07.303Z,2.58
2023-01-30T14:25:36.324Z,2.59
2023-01-30T14:28:06.194Z,2.34
2023-01-30T14:30:53.183Z,2.44
2023-01-30T14:33:20.051Z,2.42
2023-01-30T14:35:48.960Z,2.57
2023-01-30T14:38:18.131Z,2.58
2023-01-30T14:40:50.074Z,2.62
2023-01-30T14:43:25.751Z,2.57
2023-01-30T14:45:57.716Z,2.60
2023-01-30T14:49:05.245Z,2.91
2023-01-30T14:51:39.896Z,2.89
2023-01-30T14:54:25.464Z,3.01
2023-01-30T14:57:00.370Z,3.05
2023-01-30T14:59:29.643Z,3.25
2023-01-30T15:02:14.968Z,3.21
2023-01-30T15:04:47.758Z,3.36
2023-01-30T15:07:21.313Z,3.21
2023-01-30T15:10:01.743Z,3.19
2023-01-30T15:12:34.191Z,3.47
2023-01-30T15:15:13.063Z,3.43
2023-01-30T15:18:07.936Z,3.37
2023-01-30T15:20:55.623Z,3.28
2023-01-30T15:23:35.879Z,3.21
2023-01-30T15:26:18.661Z,3.16
2023-01-30T15:29:42.734Z,3.19
2023-01-30T15:32:20.717Z,3.25
2023-01-30T15:34:56.536Z,3.11
2023-01-30T15:37:41.549Z,2.97
2023-01-30T15:40:18.576Z,2.79
2023-01-30T15:43:04.681Z,2.51
2023-01-30T15:45:40.632Z,2.71
2023-01-30T15:48:29.387Z,2.83
2023-01-30T15:50:59.240Z,2.99
2023-01-30T15:53:33.926Z,3.21
2023-01-30T15:56:02.587Z,3.29
2023-01-30T15:58:30.392Z,3.32
2023-01-30T16:00:59.816Z,3.25
2023-01-30T16:03:30.324Z,3.37
2023-01-30T16:05:58.491Z,3.64
2023-01-30T16:08:30.237Z,3.42
2023-01-30T16:10:57.163Z,3.31
2023-01-30T16:13:24.316Z,2.88
2023-01-30T16:15:56.725Z,2.89
2023-01-30T16:18:36.361Z,2.86
2023-01-30T16:21:10.410Z,2.83
2023-01-30T16:23:40.999Z,2.83
2023-01-30T16:26:13.337Z,2.81
2023-01-30T16:28:41.112Z,2.71
2023-01-30T16:31:09.969Z,2.63
2023-01-30T16:33:37.573Z,2.81
2023-01-30T16:36:05.509Z,2.76
2023-01-30T16:38:38.228Z,2.77
2023-01-30T16:41:05.406Z,2.81
2023-01-30T16:43:33.864Z,3.03
2023-01-30T16:46:22.319Z,3.19
2023-01-30T16:48:50.050Z,3.47
2023-01-30T16:51:22.162Z,3.56
2023-01-30T16:53:58.949Z,3.22
2023-01-30T16:56:26.552Z,2.90
2023-01-30T16:58:57.260Z,3.00
2023-01-30T17:01:35.322Z,3.05
2023-01-30T17:04:03.906Z,3.28
2023-01-30T17:06:36.583Z,3.24
2023-01-30T17:09:05.600Z,3.53
2023-01-30T17:11:39.725Z,3.60
2023-01-30T17:14:30.705Z,3.93
2023-01-30T17:17:01.773Z,3.84
2023-01-30T17:19:28.695Z,4.05
2023-01-30T17:21:57.246Z,3.96
2023-01-30T17:24:25.480Z,3.95
2023-01-30T17:26:59.351Z,3.53
2023-01-30T17:29:41.927Z,3.18
2023-01-30T17:32:14.441Z,3.32
2023-01-30T17:34:41.674Z,3.64
2023-01-30T17:37:23.201Z,4.37
2023-01-30T17:39:50.218Z,4.17
2023-01-30T17:44:52.602Z,3.93
2023-01-30T17:47:19.478Z,3.66
2023-01-30T17:49:46.375Z,3.11
2023-01-30T17:52:15.513Z,3.28
2023-01-30T17:54:42.402Z,3.29
2023-01-30T17:57:12.194Z,3.77
2023-01-30T17:59:39.084Z,3.51
2023-01-30T18:02:10.213Z,3.41
2023-01-30T18:04:37.163Z,3.62
2023-01-30T18:07:06.494Z,4.04
2023-01-30T18:09:33.434Z,3.65
2023-01-30T18:12:00.440Z,3.38
2023-01-30T18:14:27.454Z,3.52
2023-01-30T18:17:00.096Z,3.45
2023-01-30T18:19:28.364Z,3.29
2023-01-30T18:21:55.237Z,3.38
2023-01-30T18:24:22.178Z,3.65
2023-01-30T18:26:49.230Z,3.81
2023-01-30T18:29:16.596Z,3.83
2023-01-30T18:31:43.606Z,4.17
2023-01-30T18:34:11.354Z,4.24
2023-01-30T18:36:38.393Z,4.39
2023-01-30T18:39:06.149Z,4.08
2023-01-30T18:41:33.114Z,4.18
2023-01-30T18:44:02.004Z,4.41
2023-01-30T18:46:29.416Z,4.34
2023-01-30T18:48:57.238Z,4.05
2023-01-30T18:51:33.917Z,4.24
2023-01-30T18:54:01.676Z,4.13
2023-01-30T18:56:33.710Z,4.05
2023-01-30T18:59:04.121Z,4.05
2023-01-30T19:01:38.233Z,3.60
2023-01-30T19:04:07.111Z,3.66
2023-01-30T19:06:36.672Z,3.81
2023-01-30T19:09:04.471Z,3.61
2023-01-30T19:11:50.006Z,3.80
2023-01-30T19:14:16.890Z,3.79
2023-01-30T19:16:43.817Z,3.58
2023-01-30T19:19:10.814Z,3.84
2023-01-30T19:21:38.109Z,3.82
2023-01-30T19:24:09.179Z,4.01
2023-01-30T19:26:36.119Z,4.19
2023-01-30T19:29:03.264Z,3.96
2023-01-30T19:31:30.275Z,3.85
2023-01-30T19:33:59.067Z,4.04
2023-01-30T19:36:27.341Z,4.15
2023-01-30T19:38:54.450Z,4.32
2023-01-30T19:41:25.678Z,4.19
2023-01-30T19:43:53.667Z,4.47
2023-01-30T19:46:21.451Z,4.33
2023-01-30T19:48:49.031Z,4.43
2023-01-30T19:51:21.287Z,4.32
2023-01-30T19:54:02.536Z,4.19
2023-01-30T19:56:30.386Z,4.05
2023-01-30T19:58:59.090Z,3.95
2023-01-30T20:01:29.809Z,3.95
2023-01-30T20:03:57.502Z,3.81
2023-01-30T20:06:29.543Z,3.74
2023-01-30T20:09:00.095Z,3.78
2023-01-30T20:11:27.465Z,3.73
2023-01-30T20:13:54.373Z,3.69
2023-01-30T20:16:25.550Z,3.74
2023-01-30T20:18:57.588Z,3.83
2023-01-30T20:21:24.802Z,3.66
2023-01-30T20:23:52.487Z,3.69
2023-01-30T20:26:22.181Z,3.84
2023-01-30T20:28:49.547Z,3.77
2023-01-30T20:31:21.250Z,3.66
2023-01-30T20:33:48.543Z,3.76
2023-01-30T20:36:18.829Z,3.75
2023-01-30T20:38:47.723Z,3.89
2023-01-30T20:41:22.210Z,3.92
2023-01-30T20:43:51.319Z,3.89
2023-01-30T20:46:23.365Z,3.76
2023-01-30T20:48:54.137Z,3.63
2023-01-30T20:51:24.654Z,3.73
2023-01-30T20:53:55.177Z,3.66
2023-01-30T20:56:23.300Z,3.77
2023-01-30T20:58:50.714Z,4.07
2023-01-30T21:01:20.327Z,4.00
2023-01-30T21:03:49.571Z,4.15
2023-01-30T21:06:41.699Z,3.95
2023-01-30T21:09:08.501Z,4.14
2023-01-30T21:11:35.546Z,4.20
2023-01-30T21:14:02.564Z,3.76
2023-01-30T21:16:31.669Z,3.54
2023-01-30T21:19:02.329Z,3.59
2023-01-30T21:21:32.172Z,3.61
2023-01-30T21:24:05.937Z,3.65
2023-01-30T21:26:35.779Z,3.72
2023-01-30T21:29:04.208Z,3.94
2023-01-30T21:31:32.644Z,3.99
2023-01-30T21:33:59.932Z,3.83
2023-01-30T21:36:27.456Z,3.99
2023-01-30T21:39:13.256Z,3.81
2023-01-30T21:42:01.298Z,3.79
2023-01-30T21:44:33.076Z,3.76
2023-01-30T21:47:00.398Z,3.74
2023-01-30T21:49:28.135Z,3.63
2023-01-30T21:51:55.488Z,3.71
2023-01-30T21:54:22.999Z,3.74
2023-01-30T21:56:50.537Z,3.71
2023-01-30T21:59:17.448Z,3.64
2023-01-30T22:01:44.563Z,3.75
2023-01-30T22:04:16.373Z,3.77
2023-01-30T22:06:43.735Z,3.86
2023-01-30T22:09:14.540Z,3.70
2023-01-30T22:11:41.983Z,3.95
2023-01-30T22:14:09.036Z,3.94
2023-01-30T22:16:36.261Z,3.93
2023-01-30T22:19:04.775Z,4.02
2023-01-30T22:21:35.172Z,3.93
2023-01-30T22:24:03.235Z,4.00
2023-01-30T22:26:30.479Z,4.06
2023-01-30T22:28:59.013Z,4.03
2023-01-30T22:31:27.879Z,4.14
2023-01-30T22:33:56.591Z,4.11
2023-01-30T22:36:25.666Z,4.06
2023-01-30T22:38:52.697Z,4.19
2023-01-30T22:41:21.817Z,4.38
2023-01-30T22:43:57.305Z,4.13
2023-01-30T22:46:27.488Z,4.29
2023-01-30T22:48:54.933Z,4.39
2023-01-30T22:51:27.008Z,4.27
2023-01-30T22:53:57.776Z,4.09
2023-01-30T22:56:26.718Z,4.15
2023-01-30T22:58:54.042Z,4.04
2023-01-30T23:01:23.938Z,4.00
2023-01-30T23:03:55.709Z,4.09
2023-01-30T23:06:23.066Z,4.18
2023-01-30T23:08:50.833Z,4.03
2023-01-30T23:11:23.991Z,4.01
2023-01-30T23:13:53.485Z,4.09
2023-01-30T23:16:22.929Z,4.13
2023-01-30T23:18:56.298Z,3.95
2023-01-30T23:21:36.016Z,4.03
2023-01-30T23:24:11.493Z,4.04
2023-01-30T23:26:40.496Z,4.33
2023-01-30T23:29:09.115Z,4.13
2023-01-30T23:31:36.784Z,4.14
2023-01-30T23:34:06.414Z,4.16
2023-01-30T23:36:33.846Z,4.09
2023-01-30T23:39:01.281Z,4.18
2023-01-30T23:41:30.652Z,4.03
2023-01-30T23:43:58.566Z,3.93
2023-01-30T23:46:27.986Z,4.03
2023-01-30T23:48:57.047Z,3.78
2023-01-30T23:51:26.354Z,3.95
2023-01-30T23:53:53.699Z,3.94
2023-01-30T23:56:21.758Z,3.87
2023-01-30T23:58:50.008Z,4.07
